createdAt,value
2023-02-22T00:03:08.105Z,39.75
2023-02-22T00:08:11.453Z,42.75
2023-02-22T00:13:15.647Z,40.75
2023-02-22T00:18:19.298Z,42.75
2023-02-22T00:23:23.590Z,39.00
2023-02-22T00:28:27.884Z,39.00
2023-02-22T00:33:31.779Z,45.00
2023-02-22T00:38:34.597Z,39.50
2023-02-22T00:43:39.816Z,37.50
2023-02-22T00:48:42.649Z,35.75
2023-02-22T00:53:46.524Z,31.50
2023-02-22T00:58:50.812Z,38.00
2023-02-22T01:03:53.661Z,32.75
2023-02-22T01:08:56.582Z,37.00
2023-02-22T01:14:01.514Z,30.50
2023-02-22T01:19:06.159Z,35.25
2023-02-22T01:24:09.135Z,33.00
2023-02-22T01:29:15.408Z,32.25
2023-02-22T01:34:18.371Z,35.25
2023-02-22T01:39:21.181Z,39.75
2023-02-22T01:44:30.226Z,37.00
2023-02-22T01:49:37.500Z,31.25
2023-02-22T01:54:42.770Z,35.25
2023-02-22T01:59:48.361Z,34.40
2023-02-22T02:04:51.308Z,29.80
2023-02-22T02:09:57.689Z,34.20
2023-02-22T02:15:20.317Z,28.20
2023-02-22T02:20:27.777Z,30.20
2023-02-22T02:25:57.264Z,31.60
2023-02-22T02:31:32.767Z,31.40
2023-02-22T02:36:42.722Z,29.60
2023-02-22T02:41:46.446Z,27.60
2023-02-22T02:46:51.626Z,25.20
2023-02-22T02:51:57.304Z,29.00
2023-02-22T02:57:00.038Z,31.40
2023-02-22T03:02:12.816Z,27.20
2023-02-22T03:07:30.084Z,25.60
2023-02-22T03:12:39.891Z,29.00
2023-02-22T03:17:47.575Z,27.00
2023-02-22T03:22:56.411Z,26.20
2023-02-22T03:28:02.337Z,28.00
2023-02-22T03:33:08.999Z,24.00
2023-02-22T03:38:14.243Z,30.40
2023-02-22T03:43:19.051Z,23.40
2023-02-22T03:48:25.189Z,25.00
2023-02-22T03:53:30.510Z,21.00
2023-02-22T03:58:33.615Z,25.60
2023-02-22T04:03:36.417Z,24.60
2023-02-22T04:08:40.974Z,21.80
2023-02-22T04:13:44.006Z,23.80
2023-02-22T04:18:47.422Z,21.00
2023-02-22T04:23:55.414Z,24.80
2023-02-22T04:28:58.346Z,21.80
2023-02-22T04:34:04.713Z,24.20
2023-02-22T04:39:12.506Z,22.60
2023-02-22T04:44:15.443Z,22.60
2023-02-22T04:49:18.434Z,17.80
2023-02-22T04:54:24.201Z,24.20
2023-02-22T04:59:27.598Z,22.80
2023-02-22T05:04:36.901Z,20.80
2023-02-22T05:09:41.064Z,24.40
2023-02-22T05:14:44.489Z,19.80
2023-02-22T05:19:47.648Z,21.00
2023-02-22T05:24:52.557Z,20.60
2023-02-22T05:29:55.308Z,21.60
2023-02-22T05:34:58.038Z,21.40
2023-02-22T05:40:02.178Z,18.20
2023-02-22T05:45:05.390Z,20.80
2023-02-22T05:50:09.446Z,21.80
2023-02-22T05:55:14.757Z,17.60
2023-02-22T06:00:19.178Z,22.00
2023-02-22T06:05:22.041Z,19.80
2023-02-22T06:10:26.446Z,16.20
2023-02-22T06:15:29.875Z,19.60
2023-02-22T06:20:33.336Z,19.40
2023-02-22T06:25:37.466Z,19.00
2023-02-22T06:30:41.048Z,16.40
2023-02-22T06:35:43.814Z,16.20
2023-02-22T06:40:48.091Z,17.60
2023-02-22T06:45:50.905Z,21.80
2023-02-22T06:50:53.922Z,17.20
2023-02-22T06:55:58.105Z,18.80
2023-02-22T07:01:02.761Z,15.00
2023-02-22T07:06:07.321Z,14.80
2023-02-22T07:11:11.698Z,14.00
2023-02-22T07:16:14.561Z,15.00
2023-02-22T07:21:19.097Z,15.20
2023-02-22T07:26:23.559Z,15.20
2023-02-22T07:31:28.791Z,16.20
2023-02-22T07:36:32.565Z,17.20
2023-02-22T07:41:36.845Z,17.40
2023-02-22T07:46:48.316Z,14.20
2023-02-22T07:51:51.156Z,15.60
2023-02-22T07:56:55.365Z,15.20
2023-02-22T08:01:58.172Z,25.20
2023-02-22T08:07:01.205Z,26.00
2023-02-22T08:12:05.848Z,21.00
2023-02-22T08:17:09.472Z,26.40
2023-02-22T08:22:12.349Z,21.60
2023-02-22T08:27:16.461Z,17.40
2023-02-22T08:32:19.417Z,17.20
2023-02-22T08:37:22.261Z,16.40
2023-02-22T08:42:26.452Z,19.00
2023-02-22T08:47:29.226Z,13.60
2023-02-22T08:52:32.104Z,16.60
2023-02-22T08:57:36.269Z,22.20
2023-02-22T09:02:39.141Z,13.00
2023-02-22T09:07:43.038Z,14.80
2023-02-22T09:12:47.280Z,13.80
2023-02-22T09:17:50.033Z,12.80
2023-02-22T09:22:53.208Z,12.80
2023-02-22T09:27:57.583Z,13.20
2023-02-22T09:33:01.652Z,12.40
2023-02-22T09:38:06.180Z,14.80
2023-02-22T09:43:21.740Z,11.80
2023-02-22T09:48:25.266Z,16.40
2023-02-22T09:53:30.407Z,13.40
2023-02-22T09:58:36.719Z,11.20
2023-02-22T10:03:46.319Z,11.60
2023-02-22T10:08:50.173Z,12.80
2023-02-22T10:13:57.979Z,10.60
2023-02-22T10:19:08.516Z,10.80
2023-02-22T10:24:16.198Z,10.60
2023-02-22T10:29:22.383Z,10.60
2023-02-22T10:34:26.200Z,9.60
2023-02-22T10:39:30.992Z,9.80
2023-02-22T10:44:35.343Z,11.60
2023-02-22T10:49:42.146Z,10.00
2023-02-22T10:54:46.577Z,13.00
2023-02-22T10:59:51.977Z,9.60
2023-02-22T11:04:55.569Z,13.60
2023-02-22T11:09:59.543Z,9.20
2023-02-22T11:15:26.601Z,11.60
2023-02-22T11:20:34.385Z,10.00
2023-02-22T11:25:38.640Z,8.00
2023-02-22T11:30:43.972Z,10.40
2023-02-22T11:35:52.640Z,10.20
2023-02-22T11:41:14.491Z,13.60
2023-02-22T11:46:20.029Z,9.60
2023-02-22T11:51:28.250Z,10.20
2023-02-22T11:56:38.083Z,11.20
2023-02-22T12:01:46.370Z,13.20
2023-02-22T12:06:52.451Z,9.20
2023-02-22T12:12:00.854Z,11.00
2023-02-22T12:17:20.441Z,13.00
2023-02-22T12:22:25.674Z,11.00
2023-02-22T12:27:31.122Z,10.40
2023-02-22T12:32:38.119Z,10.00
2023-02-22T12:37:53.427Z,12.20
2023-02-22T12:42:59.624Z,9.20
2023-02-22T12:48:11.053Z,14.20
2023-02-22T12:53:15.438Z,10.00
2023-02-22T12:58:23.137Z,9.60
2023-02-22T13:03:31.695Z,10.80
2023-02-22T13:08:36.745Z,13.20
2023-02-22T13:13:42.366Z,11.20
2023-02-22T13:18:49.546Z,10.00
2023-02-22T13:23:55.119Z,100.00
2023-02-22T13:29:00.191Z,159.25
2023-02-22T13:34:32.906Z,159.00
2023-02-22T13:39:42.129Z,257.50
2023-02-22T13:45:03.292Z,291.25
2023-02-22T13:50:25.786Z,317.75
2023-02-22T13:55:32.752Z,337.50
2023-02-22T14:00:47.014Z,395.00
2023-02-22T14:05:52.686Z,389.33
2023-02-22T14:10:56.147Z,419.00
2023-02-22T14:16:19.681Z,337.00
2023-02-22T14:21:24.744Z,289.00
2023-02-22T14:26:28.619Z,125.00
2023-02-22T14:31:37.375Z,200.33
2023-02-22T14:36:45.804Z,193.50
2023-02-22T14:41:53.823Z,195.00
2023-02-22T14:46:57.615Z,201.33
2023-02-22T14:52:05.642Z,181.25
2023-02-22T14:57:14.810Z,193.25
2023-02-22T15:02:19.824Z,180.75
2023-02-22T15:07:27.651Z,178.50
2023-02-22T15:12:30.887Z,188.75
2023-02-22T15:17:34.010Z,167.75
2023-02-22T15:22:38.180Z,170.50
2023-02-22T15:27:40.944Z,177.00
2023-02-22T15:33:01.295Z,170.25
2023-02-22T15:38:08.266Z,171.25
2023-02-22T15:43:18.815Z,161.75
2023-02-22T15:48:21.709Z,160.75
2023-02-22T15:53:27.421Z,158.25
2023-02-22T15:58:30.227Z,158.00
2023-02-22T16:03:38.657Z,162.75
2023-02-22T16:08:54.459Z,149.25
2023-02-22T16:14:00.326Z,150.00
2023-02-22T16:19:37.450Z,157.75
2023-02-22T16:24:42.363Z,155.50
2023-02-22T16:29:45.288Z,145.50
2023-02-22T16:34:48.119Z,146.75
2023-02-22T16:39:53.074Z,149.75
2023-02-22T16:44:56.005Z,148.75
2023-02-22T16:49:58.762Z,138.00
2023-02-22T16:55:02.922Z,143.00
2023-02-22T17:00:09.729Z,150.75
2023-02-22T17:05:14.804Z,144.50
2023-02-22T17:10:19.542Z,135.25
2023-02-22T17:15:27.100Z,133.25
2023-02-22T17:20:30.968Z,132.00
2023-02-22T17:25:37.695Z,138.00
2023-02-22T17:30:41.342Z,134.50
2023-02-22T17:35:44.488Z,129.00
2023-02-22T17:40:49.066Z,126.75
2023-02-22T17:45:51.934Z,122.00
2023-02-22T17:50:54.964Z,126.75
2023-02-22T17:55:59.318Z,124.75
2023-02-22T18:01:02.197Z,117.25
2023-02-22T18:06:05.949Z,120.00
2023-02-22T18:11:10.246Z,126.00
2023-02-22T18:16:13.149Z,118.25
2023-02-22T18:21:16.246Z,120.75
2023-02-22T18:26:21.336Z,112.25
2023-02-22T18:31:24.559Z,125.50
2023-02-22T18:36:27.449Z,111.50
2023-02-22T18:41:31.726Z,118.75
2023-02-22T18:46:34.638Z,103.50
2023-02-22T18:51:39.836Z,115.00
2023-02-22T18:56:44.235Z,103.00
2023-02-22T19:01:49.129Z,105.75
2023-02-22T19:06:52.137Z,105.75
2023-02-22T19:11:56.289Z,100.25
2023-02-22T19:17:01.489Z,108.75
2023-02-22T19:22:04.743Z,97.25
2023-02-22T19:27:08.954Z,97.75
2023-02-22T19:32:12.387Z,97.75
2023-02-22T19:37:15.358Z,99.00
2023-02-22T19:42:19.687Z,93.25
2023-02-22T19:47:22.567Z,88.75
2023-02-22T19:52:25.440Z,90.75
2023-02-22T19:57:29.882Z,88.00
2023-02-22T20:02:32.981Z,82.50
2023-02-22T20:07:35.870Z,91.50
2023-02-22T20:12:40.038Z,89.75
2023-02-22T20:17:44.823Z,89.00
2023-02-22T20:22:47.809Z,88.25
2023-02-22T20:27:52.024Z,88.50
2023-02-22T20:32:55.355Z,84.00
2023-02-22T20:37:58.273Z,86.25
2023-02-22T20:43:02.451Z,81.75
2023-02-22T20:48:05.567Z,88.75
2023-02-22T20:53:08.984Z,82.00
2023-02-22T20:58:13.151Z,80.25
2023-02-22T21:03:15.954Z,80.00
2023-02-22T21:08:19.013Z,84.75
2023-02-22T21:13:23.384Z,77.75
2023-02-22T21:18:26.397Z,74.75
2023-02-22T21:23:30.393Z,80.00
2023-02-22T21:28:50.441Z,79.25
2023-02-22T21:33:54.765Z,73.00
2023-02-22T21:38:58.626Z,75.75
2023-02-22T21:44:02.837Z,72.00
2023-02-22T21:49:05.769Z,78.50
2023-02-22T21:54:09.503Z,70.00
2023-02-22T21:59:14.683Z,68.25
2023-02-22T22:04:19.129Z,69.25
2023-02-22T22:09:23.549Z,70.00
2023-02-22T22:14:28.116Z,73.00
2023-02-22T22:19:31.776Z,71.00
2023-02-22T22:24:35.142Z,67.00
2023-02-22T22:29:39.287Z,71.33
2023-02-22T22:34:42.570Z,65.00
2023-02-22T22:39:45.572Z,68.33
2023-02-22T22:44:51.565Z,68.67
2023-02-22T22:50:01.280Z,68.00
2023-02-22T22:55:07.012Z,68.33
2023-02-22T23:00:32.797Z,65.00
2023-02-22T23:05:39.946Z,67.33
2023-02-22T23:10:42.902Z,66.33
2023-02-22T23:15:48.092Z,64.00
2023-02-22T23:20:55.123Z,65.00
2023-02-22T23:26:11.384Z,67.00
2023-02-22T23:31:16.814Z,59.67
2023-02-22T23:36:20.024Z,67.00
2023-02-22T23:41:25.003Z,64.00
2023-02-22T23:46:32.665Z,64.67
2023-02-22T23:51:39.366Z,58.00
2023-02-22T23:56:47.061Z,63.00
